sensor_id;sensor_type;location;lat;lon;timestamp;pressure;altitude;pressure_sealevel;temperature;humidity
43683;BME280;29285;52.128;21.060;2023-02-28T00:00:32;101813.32;;;0.47;69.58
43683;BME280;29285;52.128;21.060;2023-02-28T00:05:48;101815.38;;;0.37;69.53
43683;BME280;29285;52.128;21.060;2023-02-28T00:10:49;101816.38;;;0.30;69.49
43683;BME280;29285;52.128;21.060;2023-02-28T00:15:58;101824.05;;;0.26;69.57
43683;BME280;29285;52.128;21.060;2023-02-28T00:20:59;101829.75;;;0.24;69.55
43683;BME280;29285;52.128;21.060;2023-02-28T00:26:00;101830.65;;;0.21;69.79
43683;BME280;29285;52.128;21.060;2023-02-28T00:31:00;101830.06;;;0.17;69.91
43683;BME280;29285;52.128;21.060;2023-02-28T00:36:08;101834.17;;;0.10;69.92
43683;BME280;29285;52.128;21.060;2023-02-28T00:41:09;101832.35;;;0.04;69.97
43683;BME280;29285;52.128;21.060;2023-02-28T00:46:10;101839.00;;;-0.03;70.01
43683;BME280;29285;52.128;21.060;2023-02-28T00:51:11;101836.73;;;-0.07;70.17
43683;BME280;29285;52.128;21.060;2023-02-28T00:56:12;101836.98;;;-0.09;70.17
43683;BME280;29285;52.128;21.060;2023-02-28T01:01:14;101836.07;;;-0.10;70.34
43683;BME280;29285;52.128;21.060;2023-02-28T01:06:15;101836.00;;;-0.11;70.58
43683;BME280;29285;52.128;21.060;2023-02-28T01:11:16;101834.64;;;-0.18;70.57
43683;BME280;29285;52.128;21.060;2023-02-28T01:16:18;101830.71;;;-0.25;70.59
43683;BME280;29285;52.128;21.060;2023-02-28T01:21:19;101827.92;;;-0.29;70.55
43683;BME280;29285;52.128;21.060;2023-02-28T01:26:21;101833.30;;;-0.27;70.84
43683;BME280;29285;52.128;21.060;2023-02-28T01:31:23;101829.47;;;-0.29;70.99
43683;BME280;29285;52.128;21.060;2023-02-28T01:36:24;101829.73;;;-0.37;71.05
43683;BME280;29285;52.128;21.060;2023-02-28T01:41:26;101833.02;;;-0.46;70.94
43683;BME280;29285;52.128;21.060;2023-02-28T01:46:27;101836.43;;;-0.49;71.08
43683;BME280;29285;52.128;21.060;2023-02-28T01:51:39;101839.17;;;-0.52;71.18
43683;BME280;29285;52.128;21.060;2023-02-28T01:56:54;101846.58;;;-0.54;71.22
43683;BME280;29285;52.128;21.060;2023-02-28T02:01:55;101840.84;;;-0.59;71.39
43683;BME280;29285;52.128;21.060;2023-02-28T02:06:57;101839.63;;;-0.63;71.50
43683;BME280;29285;52.128;21.060;2023-02-28T02:11:58;101836.90;;;-0.66;71.47
43683;BME280;29285;52.128;21.060;2023-02-28T02:22:32;101832.95;;;-0.70;71.91
43683;BME280;29285;52.128;21.060;2023-02-28T02:27:46;101835.86;;;-0.76;71.95
43683;BME280;29285;52.128;21.060;2023-02-28T02:43:13;101842.51;;;-0.82;72.24
43683;BME280;29285;52.128;21.060;2023-02-28T02:48:17;101844.55;;;-0.79;72.51
43683;BME280;29285;52.128;21.060;2023-02-28T02:53:21;101848.00;;;-0.82;72.93
43683;BME280;29285;52.128;21.060;2023-02-28T02:58:26;101849.17;;;-0.82;73.01
43683;BME280;29285;52.128;21.060;2023-02-28T03:03:27;101848.98;;;-0.85;73.15
43683;BME280;29285;52.128;21.060;2023-02-28T03:08:33;101852.89;;;-0.92;73.17
43683;BME280;29285;52.128;21.060;2023-02-28T03:13:42;101850.19;;;-0.95;73.26
43683;BME280;29285;52.128;21.060;2023-02-28T03:29:20;101852.84;;;-1.05;73.59
43683;BME280;29285;52.128;21.060;2023-02-28T03:34:29;101853.65;;;-1.09;73.62
43683;BME280;29285;52.128;21.060;2023-02-28T03:39:34;101864.25;;;-1.11;73.94
43683;BME280;29285;52.128;21.060;2023-02-28T03:44:57;101861.67;;;-1.15;73.85
43683;BME280;29285;52.128;21.060;2023-02-28T03:50:09;101862.06;;;-1.17;73.99
43683;BME280;29285;52.128;21.060;2023-02-28T03:55:12;101864.23;;;-1.17;74.17
43683;BME280;29285;52.128;21.060;2023-02-28T04:00:17;101868.02;;;-1.21;74.37
43683;BME280;29285;52.128;21.060;2023-02-28T04:05:20;101866.95;;;-1.21;74.49
43683;BME280;29285;52.128;21.060;2023-02-28T04:10:21;101866.87;;;-1.26;74.56
43683;BME280;29285;52.128;21.060;2023-02-28T04:15:22;101865.08;;;-1.27;74.78
43683;BME280;29285;52.128;21.060;2023-02-28T04:20:25;101866.23;;;-1.28;74.91
43683;BME280;29285;52.128;21.060;2023-02-28T04:25:26;101866.31;;;-1.29;75.07
43683;BME280;29285;52.128;21.060;2023-02-28T04:30:27;101869.00;;;-1.33;75.22
43683;BME280;29285;52.128;21.060;2023-02-28T04:35:30;101872.36;;;-1.37;75.28
43683;BME280;29285;52.128;21.060;2023-02-28T04:40:31;101876.11;;;-1.37;75.32
43683;BME280;29285;52.128;21.060;2023-02-28T04:45:32;101877.73;;;-1.35;75.52
43683;BME280;29285;52.128;21.060;2023-02-28T04:50:34;101875.59;;;-1.37;75.64
43683;BME280;29285;52.128;21.060;2023-02-28T04:55:35;101875.21;;;-1.37;75.82
43683;BME280;29285;52.128;21.060;2023-02-28T05:00:36;101876.48;;;-1.39;75.99
43683;BME280;29285;52.128;21.060;2023-02-28T05:05:37;101879.23;;;-1.39;76.09
43683;BME280;29285;52.128;21.060;2023-02-28T05:10:38;101884.42;;;-1.40;76.23
43683;BME280;29285;52.128;21.060;2023-02-28T05:15:39;101895.18;;;-1.43;76.31
43683;BME280;29285;52.128;21.060;2023-02-28T05:20:40;101897.46;;;-1.44;76.39
43683;BME280;29285;52.128;21.060;2023-02-28T05:25:41;101900.80;;;-1.46;76.57
43683;BME280;29285;52.128;21.060;2023-02-28T05:30:42;101903.26;;;-1.48;76.61
43683;BME280;29285;52.128;21.060;2023-02-28T05:35:43;101910.01;;;-1.49;76.74
43683;BME280;29285;52.128;21.060;2023-02-28T05:40:44;101907.92;;;-1.37;77.20
43683;BME280;29285;52.128;21.060;2023-02-28T05:45:45;101916.98;;;-1.39;77.26
43683;BME280;29285;52.128;21.060;2023-02-28T05:50:46;101927.16;;;-1.40;77.33
43683;BME280;29285;52.128;21.060;2023-02-28T05:55:47;101928.45;;;-1.39;77.43
43683;BME280;29285;52.128;21.060;2023-02-28T06:00:48;101933.55;;;-1.36;77.57
43683;BME280;29285;52.128;21.060;2023-02-28T06:05:48;101935.86;;;-1.31;77.78
43683;BME280;29285;52.128;21.060;2023-02-28T06:10:50;101939.10;;;-1.19;78.00
43683;BME280;29285;52.128;21.060;2023-02-28T06:15:52;101941.39;;;-1.12;78.25
43683;BME280;29285;52.128;21.060;2023-02-28T06:20:53;101945.00;;;-1.03;78.49
43683;BME280;29285;52.128;21.060;2023-02-28T06:25:55;101945.07;;;-0.92;78.59
43683;BME280;29285;52.128;21.060;2023-02-28T06:30:58;101942.09;;;-0.72;79.01
43683;BME280;29285;52.128;21.060;2023-02-28T06:35:59;101941.12;;;-0.40;79.39
43683;BME280;29285;52.128;21.060;2023-02-28T06:41:00;101939.32;;;-0.29;79.64
43683;BME280;29285;52.128;21.060;2023-02-28T06:46:02;101938.80;;;-0.20;79.75
43683;BME280;29285;52.128;21.060;2023-02-28T06:51:08;101931.70;;;-0.06;79.93
43683;BME280;29285;52.128;21.060;2023-02-28T06:56:11;101930.85;;;0.11;80.10
43683;BME280;29285;52.128;21.060;2023-02-28T07:01:13;101927.90;;;0.24;80.43
43683;BME280;29285;52.128;21.060;2023-02-28T07:06:14;101925.68;;;0.33;80.37
43683;BME280;29285;52.128;21.060;2023-02-28T07:11:19;101919.94;;;0.45;80.46
43683;BME280;29285;52.128;21.060;2023-02-28T07:16:20;101911.17;;;0.58;80.40
43683;BME280;29285;52.128;21.060;2023-02-28T07:21:21;101914.88;;;0.63;80.38
43683;BME280;29285;52.128;21.060;2023-02-28T07:26:22;101920.00;;;0.74;80.35
43683;BME280;29285;52.128;21.060;2023-02-28T07:31:23;101919.92;;;0.86;80.41
43683;BME280;29285;52.128;21.060;2023-02-28T07:36:24;101925.77;;;0.97;80.38
43683;BME280;29285;52.128;21.060;2023-02-28T07:41:25;101922.87;;;1.08;80.38
43683;BME280;29285;52.128;21.060;2023-02-28T07:46:28;101922.57;;;1.16;80.41
43683;BME280;29285;52.128;21.060;2023-02-28T07:51:30;101918.83;;;1.28;80.59
43683;BME280;29285;52.128;21.060;2023-02-28T07:56:31;101916.98;;;1.43;80.65
43683;BME280;29285;52.128;21.060;2023-02-28T08:01:32;101921.66;;;1.59;80.90
43683;BME280;29285;52.128;21.060;2023-02-28T08:06:33;101920.98;;;1.70;81.02
43683;BME280;29285;52.128;21.060;2023-02-28T08:11:34;101920.36;;;1.72;80.65
43683;BME280;29285;52.128;21.060;2023-02-28T08:16:35;101918.20;;;1.74;80.38
43683;BME280;29285;52.128;21.060;2023-02-28T08:21:36;101916.74;;;1.79;80.35
43683;BME280;29285;52.128;21.060;2023-02-28T08:26:37;101917.81;;;1.84;80.07
43683;BME280;29285;52.128;21.060;2023-02-28T08:31:38;101910.82;;;1.84;79.50
43683;BME280;29285;52.128;21.060;2023-02-28T08:36:39;101914.11;;;1.89;79.50
43683;BME280;29285;52.128;21.060;2023-02-28T08:41:41;101911.39;;;1.94;79.46
43683;BME280;29285;52.128;21.060;2023-02-28T08:46:42;101908.56;;;2.00;79.14
43683;BME280;29285;52.128;21.060;2023-02-28T08:51:43;101911.56;;;1.94;78.76
43683;BME280;29285;52.128;21.060;2023-02-28T08:56:43;101916.92;;;1.83;78.37
43683;BME280;29285;52.128;21.060;2023-02-28T09:01:44;101920.06;;;1.84;78.19
43683;BME280;29285;52.128;21.060;2023-02-28T09:06:45;101916.49;;;1.97;78.08
43683;BME280;29285;52.128;21.060;2023-02-28T09:11:46;101919.23;;;2.05;77.88
43683;BME280;29285;52.128;21.060;2023-02-28T09:16:47;101921.26;;;2.15;77.76
43683;BME280;29285;52.128;21.060;2023-02-28T09:21:48;101919.27;;;2.29;78.05
43683;BME280;29285;52.128;21.060;2023-02-28T09:26:49;101927.02;;;2.42;78.06
43683;BME280;29285;52.128;21.060;2023-02-28T09:31:50;101925.77;;;2.54;78.05
43683;BME280;29285;52.128;21.060;2023-02-28T09:36:51;101925.77;;;2.61;77.64
43683;BME280;29285;52.128;21.060;2023-02-28T09:41:55;101931.52;;;2.63;77.63
43683;BME280;29285;52.128;21.060;2023-02-28T09:47:08;101931.55;;;2.68;77.23
43683;BME280;29285;52.128;21.060;2023-02-28T09:52:14;101929.67;;;2.73;77.28
43683;BME280;29285;52.128;21.060;2023-02-28T09:57:26;101928.19;;;2.66;76.60
43683;BME280;29285;52.128;21.060;2023-02-28T10:12:47;101925.19;;;2.27;74.95
43683;BME280;29285;52.128;21.060;2023-02-28T10:17:49;101928.53;;;1.87;74.10
43683;BME280;29285;52.128;21.060;2023-02-28T10:23:12;101932.61;;;1.78;73.59
43683;BME280;29285;52.128;21.060;2023-02-28T10:28:16;101930.90;;;2.01;73.77
43683;BME280;29285;52.128;21.060;2023-02-28T10:33:25;101926.99;;;2.17;73.79
43683;BME280;29285;52.128;21.060;2023-02-28T10:38:31;101929.70;;;2.33;74.12
43683;BME280;29285;52.128;21.060;2023-02-28T10:43:33;101929.00;;;2.36;73.93
43683;BME280;29285;52.128;21.060;2023-02-28T10:48:41;101925.04;;;2.60;73.89
43683;BME280;29285;52.128;21.060;2023-02-28T11:03:48;101911.73;;;3.21;74.39
43683;BME280;29285;52.128;21.060;2023-02-28T11:08:51;101909.73;;;3.27;74.17
43683;BME280;29285;52.128;21.060;2023-02-28T11:13:53;101904.19;;;3.53;74.23
43683;BME280;29285;52.128;21.060;2023-02-28T11:18:55;101895.02;;;3.97;74.61
43683;BME280;29285;52.128;21.060;2023-02-28T11:24:02;101886.60;;;4.42;75.15
43683;BME280;29285;52.128;21.060;2023-02-28T11:29:09;101879.21;;;4.74;75.32
43683;BME280;29285;52.128;21.060;2023-02-28T11:34:32;101869.51;;;4.93;75.12
43683;BME280;29285;52.128;21.060;2023-02-28T11:39:32;101862.80;;;5.09;74.78
43683;BME280;29285;52.128;21.060;2023-02-28T11:49:42;101851.53;;;4.95;73.41
43683;BME280;29285;52.128;21.060;2023-02-28T11:54:52;101837.16;;;5.33;73.57
43683;BME280;29285;52.128;21.060;2023-02-28T12:05:29;101821.69;;;5.39;72.93
43683;BME280;29285;52.128;21.060;2023-02-28T12:21:04;101815.66;;;5.82;71.91
43683;BME280;29285;52.128;21.060;2023-02-28T12:31:33;101805.69;;;6.36;72.00
43683;BME280;29285;52.128;21.060;2023-02-28T12:36:36;101796.15;;;6.62;72.07
43683;BME280;29285;52.128;21.060;2023-02-28T12:46:43;101780.56;;;7.48;73.14
43683;BME280;29285;52.128;21.060;2023-02-28T12:51:45;101773.98;;;7.83;73.33
43683;BME280;29285;52.128;21.060;2023-02-28T13:12:17;101767.45;;;7.75;70.52
43683;BME280;29285;52.128;21.060;2023-02-28T13:17:19;101765.39;;;7.76;69.93
43683;BME280;29285;52.128;21.060;2023-02-28T13:22:41;101757.29;;;7.68;69.49
43683;BME280;29285;52.128;21.060;2023-02-28T13:27:42;101761.28;;;7.60;68.69
43683;BME280;29285;52.128;21.060;2023-02-28T13:32:44;101752.33;;;7.61;68.45
43683;BME280;29285;52.128;21.060;2023-02-28T13:37:46;101747.52;;;7.72;68.19
43683;BME280;29285;52.128;21.060;2023-02-28T13:42:50;101741.65;;;7.73;67.89
43683;BME280;29285;52.128;21.060;2023-02-28T13:48:00;101739.06;;;7.83;67.57
43683;BME280;29285;52.128;21.060;2023-02-28T14:08:35;101708.52;;;9.47;68.63
43683;BME280;29285;52.128;21.060;2023-02-28T14:18:55;101696.35;;;11.49;70.30
43683;BME280;29285;52.128;21.060;2023-02-28T14:39:23;101675.59;;;15.36;60.71
43683;BME280;29285;52.128;21.060;2023-02-28T14:44:26;101682.98;;;15.30;58.94
43683;BME280;29285;52.128;21.060;2023-02-28T14:49:28;101682.89;;;13.13;56.29
43683;BME280;29285;52.128;21.060;2023-02-28T14:54:30;101674.77;;;11.17;54.15
43683;BME280;29285;52.128;21.060;2023-02-28T14:59:33;101676.02;;;9.76;53.21
43683;BME280;29285;52.128;21.060;2023-02-28T15:04:34;101676.60;;;8.69;52.79
43683;BME280;29285;52.128;21.060;2023-02-28T15:09:35;101671.59;;;7.88;52.75
43683;BME280;29285;52.128;21.060;2023-02-28T15:14:36;101674.69;;;7.19;52.63
43683;BME280;29285;52.128;21.060;2023-02-28T15:19:39;101682.84;;;6.62;52.74
43683;BME280;29285;52.128;21.060;2023-02-28T15:24:44;101682.92;;;6.20;52.61
43683;BME280;29285;52.128;21.060;2023-02-28T15:29:51;101682.46;;;5.87;52.98
43683;BME280;29285;52.128;21.060;2023-02-28T15:34:54;101681.77;;;5.80;53.37
43683;BME280;29285;52.128;21.060;2023-02-28T15:39:56;101683.60;;;5.57;53.48
43683;BME280;29285;52.128;21.060;2023-02-28T15:44:57;101679.64;;;5.37;53.80
43683;BME280;29285;52.128;21.060;2023-02-28T15:50:01;101681.04;;;5.19;53.66
43683;BME280;29285;52.128;21.060;2023-02-28T15:55:17;101685.49;;;5.12;54.05
43683;BME280;29285;52.128;21.060;2023-02-28T16:00:20;101686.33;;;5.05;54.38
43683;BME280;29285;52.128;21.060;2023-02-28T16:05:23;101686.74;;;5.01;54.42
43683;BME280;29285;52.128;21.060;2023-02-28T16:10:29;101684.08;;;4.93;54.62
43683;BME280;29285;52.128;21.060;2023-02-28T16:15:31;101686.48;;;4.86;54.84
43683;BME280;29285;52.128;21.060;2023-02-28T16:20:36;101689.00;;;4.84;55.21
43683;BME280;29285;52.128;21.060;2023-02-28T16:25:38;101692.20;;;4.64;55.14
43683;BME280;29285;52.128;21.060;2023-02-28T16:30:40;101695.81;;;4.47;55.08
43683;BME280;29285;52.128;21.060;2023-02-28T16:35:41;101704.70;;;4.35;54.96
43683;BME280;29285;52.128;21.060;2023-02-28T16:40:42;101700.80;;;4.20;55.12
43683;BME280;29285;52.128;21.060;2023-02-28T16:45:43;101697.16;;;4.03;55.12
43683;BME280;29285;52.128;21.060;2023-02-28T16:50:44;101703.67;;;3.92;55.54
43683;BME280;29285;52.128;21.060;2023-02-28T16:55:45;101700.11;;;3.82;55.54
43683;BME280;29285;52.128;21.060;2023-02-28T17:00:50;101693.20;;;3.71;55.67
43683;BME280;29285;52.128;21.060;2023-02-28T17:05:53;101697.59;;;3.59;55.86
43683;BME280;29285;52.128;21.060;2023-02-28T17:10:55;101706.41;;;3.51;56.01
43683;BME280;29285;52.128;21.060;2023-02-28T17:15:57;101716.09;;;3.43;56.11
43683;BME280;29285;52.128;21.060;2023-02-28T17:20:59;101722.88;;;3.36;56.18
43683;BME280;29285;52.128;21.060;2023-02-28T17:26:00;101726.04;;;3.28;56.40
43683;BME280;29285;52.128;21.060;2023-02-28T17:31:01;101731.66;;;3.22;56.33
43683;BME280;29285;52.128;21.060;2023-02-28T17:36:02;101727.60;;;3.15;56.50
43683;BME280;29285;52.128;21.060;2023-02-28T17:41:04;101730.41;;;3.07;56.76
43683;BME280;29285;52.128;21.060;2023-02-28T17:46:05;101724.42;;;3.03;57.08
43683;BME280;29285;52.128;21.060;2023-02-28T17:51:08;101721.55;;;2.99;56.95
43683;BME280;29285;52.128;21.060;2023-02-28T17:56:29;101724.89;;;2.92;57.36
43683;BME280;29285;52.128;21.060;2023-02-28T18:01:30;101721.95;;;2.82;57.38
43683;BME280;29285;52.128;21.060;2023-02-28T18:06:33;101724.52;;;2.82;57.64
43683;BME280;29285;52.128;21.060;2023-02-28T18:11:35;101718.57;;;2.79;57.62
43683;BME280;29285;52.128;21.060;2023-02-28T18:16:42;101715.04;;;2.67;57.97
43683;BME280;29285;52.128;21.060;2023-02-28T18:21:44;101710.88;;;2.57;58.16
43683;BME280;29285;52.128;21.060;2023-02-28T18:26:45;101700.34;;;2.50;58.09
43683;BME280;29285;52.128;21.060;2023-02-28T18:31:46;101691.14;;;2.42;58.30
43683;BME280;29285;52.128;21.060;2023-02-28T18:36:48;101689.36;;;2.32;58.57
43683;BME280;29285;52.128;21.060;2023-02-28T18:41:50;101692.72;;;2.17;58.74
43683;BME280;29285;52.128;21.060;2023-02-28T18:46:50;101682.75;;;2.12;58.98
43683;BME280;29285;52.128;21.060;2023-02-28T18:51:52;101665.14;;;1.75;58.65
43683;BME280;29285;52.128;21.060;2023-02-28T18:56:53;101664.42;;;1.41;58.42
43683;BME280;29285;52.128;21.060;2023-02-28T19:01:55;101668.25;;;1.46;58.92
43683;BME280;29285;52.128;21.060;2023-02-28T19:06:58;101659.87;;;1.55;59.46
43683;BME280;29285;52.128;21.060;2023-02-28T19:11:59;101666.03;;;1.59;60.04
43683;BME280;29285;52.128;21.060;2023-02-28T19:17:00;101664.76;;;1.61;60.26
43683;BME280;29285;52.128;21.060;2023-02-28T19:22:01;101674.98;;;1.68;60.74
43683;BME280;29285;52.128;21.060;2023-02-28T19:27:02;101680.65;;;1.77;61.14
43683;BME280;29285;52.128;21.060;2023-02-28T19:32:03;101687.42;;;1.79;61.31
43683;BME280;29285;52.128;21.060;2023-02-28T19:37:03;101700.39;;;1.79;61.42
43683;BME280;29285;52.128;21.060;2023-02-28T19:42:08;101702.85;;;1.76;61.88
43683;BME280;29285;52.128;21.060;2023-02-28T19:47:10;101712.84;;;1.69;61.80
43683;BME280;29285;52.128;21.060;2023-02-28T19:52:11;101707.38;;;1.65;62.19
43683;BME280;29285;52.128;21.060;2023-02-28T19:57:12;101706.35;;;1.62;62.21
43683;BME280;29285;52.128;21.060;2023-02-28T20:02:14;101706.13;;;1.44;62.15
43683;BME280;29285;52.128;21.060;2023-02-28T20:07:16;101714.85;;;1.40;62.37
43683;BME280;29285;52.128;21.060;2023-02-28T20:12:17;101718.70;;;1.39;62.64
43683;BME280;29285;52.128;21.060;2023-02-28T20:17:22;101714.86;;;1.40;62.96
43683;BME280;29285;52.128;21.060;2023-02-28T20:22:23;101719.30;;;1.40;63.20
43683;BME280;29285;52.128;21.060;2023-02-28T20:27:24;101718.67;;;1.38;63.38
43683;BME280;29285;52.128;21.060;2023-02-28T20:32:25;101723.89;;;1.35;63.71
43683;BME280;29285;52.128;21.060;2023-02-28T20:37:26;101719.05;;;1.30;63.88
43683;BME280;29285;52.128;21.060;2023-02-28T20:42:27;101714.73;;;1.25;63.97
43683;BME280;29285;52.128;21.060;2023-02-28T20:47:28;101702.38;;;1.21;64.11
43683;BME280;29285;52.128;21.060;2023-02-28T20:52:29;101684.70;;;0.92;64.04
43683;BME280;29285;52.128;21.060;2023-02-28T20:57:30;101680.38;;;0.69;63.92
43683;BME280;29285;52.128;21.060;2023-02-28T21:02:31;101691.44;;;0.67;64.00
43683;BME280;29285;52.128;21.060;2023-02-28T21:07:32;101708.63;;;0.74;64.49
43683;BME280;29285;52.128;21.060;2023-02-28T21:12:32;101707.00;;;0.75;64.89
43683;BME280;29285;52.128;21.060;2023-02-28T21:17:33;101696.20;;;0.78;65.24
43683;BME280;29285;52.128;21.060;2023-02-28T21:22:34;101695.83;;;0.81;65.51
43683;BME280;29285;52.128;21.060;2023-02-28T21:27:35;101690.80;;;0.83;65.79
43683;BME280;29285;52.128;21.060;2023-02-28T21:32:36;101688.66;;;0.85;66.16
43683;BME280;29285;52.128;21.060;2023-02-28T21:37:37;101695.89;;;0.82;66.44
43683;BME280;29285;52.128;21.060;2023-02-28T21:42:38;101694.73;;;0.76;66.43
43683;BME280;29285;52.128;21.060;2023-02-28T21:47:39;101683.16;;;0.69;66.52
43683;BME280;29285;52.128;21.060;2023-02-28T21:52:40;101691.05;;;0.62;66.61
43683;BME280;29285;52.128;21.060;2023-02-28T21:57:41;101694.48;;;0.59;66.88
43683;BME280;29285;52.128;21.060;2023-02-28T22:02:42;101696.26;;;0.53;66.99
43683;BME280;29285;52.128;21.060;2023-02-28T22:07:43;101699.41;;;0.44;67.03
43683;BME280;29285;52.128;21.060;2023-02-28T22:12:44;101694.45;;;0.36;67.23
43683;BME280;29285;52.128;21.060;2023-02-28T22:17:45;101691.14;;;0.35;67.39
43683;BME280;29285;52.128;21.060;2023-02-28T22:22:45;101693.86;;;0.34;67.72
43683;BME280;29285;52.128;21.060;2023-02-28T22:27:46;101688.33;;;0.37;68.13
43683;BME280;29285;52.128;21.060;2023-02-28T22:32:47;101682.46;;;0.39;68.43
43683;BME280;29285;52.128;21.060;2023-02-28T22:37:48;101684.13;;;0.34;68.53
43683;BME280;29285;52.128;21.060;2023-02-28T22:42:49;101676.95;;;0.34;68.90
43683;BME280;29285;52.128;21.060;2023-02-28T22:47:50;101671.52;;;0.35;69.16
43683;BME280;29285;52.128;21.060;2023-02-28T22:52:51;101670.75;;;0.33;69.36
43683;BME280;29285;52.128;21.060;2023-02-28T22:57:52;101674.55;;;0.31;69.43
43683;BME280;29285;52.128;21.060;2023-02-28T23:02:53;101673.27;;;0.18;69.60
43683;BME280;29285;52.128;21.060;2023-02-28T23:07:53;101673.79;;;0.07;69.55
43683;BME280;29285;52.128;21.060;2023-02-28T23:12:55;101676.39;;;0.05;69.92
43683;BME280;29285;52.128;21.060;2023-02-28T23:17:56;101679.52;;;0.06;70.15
43683;BME280;29285;52.128;21.060;2023-02-28T23:22:58;101688.08;;;0.06;70.32
43683;BME280;29285;52.128;21.060;2023-02-28T23:27:58;101700.39;;;-0.03;70.54
43683;BME280;29285;52.128;21.060;2023-02-28T23:32:59;101692.54;;;-0.10;70.65
43683;BME280;29285;52.128;21.060;2023-02-28T23:38:00;101683.41;;;-0.05;70.99
43683;BME280;29285;52.128;21.060;2023-02-28T23:43:01;101675.59;;;0.02;71.37
43683;BME280;29285;52.128;21.060;2023-02-28T23:48:02;101673.98;;;0.04;71.74
43683;BME280;29285;52.128;21.060;2023-02-28T23:53:03;101681.68;;;-0.06;71.65
43683;BME280;29285;52.128;21.060;2023-02-28T23:58:05;101687.52;;;-0.16;71.76
